Welcome to our new website - Welkom op onze vernieuwde website - Bienvenue sur notre nouveau site web - Willkommen auf unserer neuen Website
Check our progress frequently. Prüfen Sie unsere Fortschritte regelmäßig. Consultez notre progression fréquemment. Komt u straks nog eens terug


Blik over 't Veldj richting Zuid-Westen Meer informatie Blik over 't Veldj richting Zuid-Westen


Onweer radar Meer informatie blitzortung!


Regen radar Meer informatie rain snow radar


Bezoek onze andere website:

Template documentation
and downloads

And another site


Select another period ( hide this area )

Eenheden Periode Custom range Directly to
Metrisch Engels Beide
Dagelijkse Wekelijkse Maandelijkse Jaarlijkse
use both date-selectors for a custom range
previous Dag
With this date

WeatherUnderground graphs for this period ( click here )


Dagelijkse Samenvatting Vrijdag 22 februari 2019
Tijd Temp. ( °C ) Dew pt. ( °C ) Wind ( km/h ) van Windvlaag ( km/h ) Luchtdruk ( hPa ) Humid.( % ) Rainrate ( cm )
Hoog9,6 8,4 6,4 WZW ( 43/123 ) 9,7 1035,4 96 0,30
Gemiddeld8,8 8,1 1,2 Kalm #51/105 3,2 1033,1 95 0,60
Laag8,4 7,8 -   0,0 1031,7 91 -
Dagelijkse Tabular details for Vrijdag 22 februari 2019
Tijd Temp. ( °C ) Dew pt. ( °C ) Wind ( km/h ) van Windvlaag ( km/h ) Luchtdruk ( hPa ) Humid.( % ) Rainrate ( cm )
00:04 9,6 8,2 3,2 WZW 3,2 1031,7 91 -
00:09 9,4 8,0   Kalm 3,2 1031,7 91 -
00:14 9,4 8,2   Kalm   1031,7 92 -
00:20 9,4 8,2 3,2 Westen 3,2 1031,7 92 -
00:25 9,3 8,1   Kalm 1,6 1031,7 92 -
00:30 9,3 8,2 1,4 Westen 1,6 1031,7 93 -
00:35 9,3 8,2 1,4 Westen 3,2 1032,1 93 -
00:40 9,3 8,2 1,4 WZW 3,2 1032,1 93 -
00:45 9,3 8,2 3,2 WZW 6,4 1032,1 93 -
00:50 9,3 8,2   Kalm 4,8 1032,1 93 0,30
00:55 9,3 8,4   Kalm 3,2 1032,1 94 0,30
01:00 9,3 8,4   Kalm 6,4 1032,1 94 0,30
01:05 9,3 8,4   Kalm 4,8 1032,1 94 0,30
01:10 9,2 8,3   Kalm 3,2 1032,1 94 0,30
01:15 9,2 8,3 4,7 Westen 4,8 1032,1 94 0,30
01:20 9,2 8,3 4,7 Westen 6,4 1032,1 94 0,30
01:25 9,2 8,3   Kalm 6,4 1032,1 94 0,30
01:30 9,2 8,3 1,4 WZW 6,4 1032,1 94 0,30
01:35 9,1 8,2 6,4 WZW 9,7 1032,1 94 0,30
01:40 9,1 8,2 4,7 WNW 8,0 1032,1 94 0,30
01:45 9,1 8,3 1,4 ZW 6,4 1032,1 95 0,30
01:50 9,1 8,3 1,4 Westen 8,0 1032,1 95 -
01:55 9,1 8,3 1,4 Westen 4,8 1032,1 95 -
02:00 9,0 8,2 4,7 WZW 4,8 1032,4 95 -
02:05 9,0 8,2   Kalm 4,8 1032,4 95 -
02:10 9,0 8,2 1,4 ZW 4,8 1032,4 95 -
02:15 9,0 8,2   Kalm 3,2 1032,4 95 -
02:20 8,9 8,1 1,4 WNW 4,8 1032,4 95 -
02:25 9,0 8,2   Kalm 3,2 1032,4 95 -
02:30 8,9 8,1   Kalm 3,2 1032,4 95 -
02:35 8,9 8,1 3,2 WZW 3,2 1032,7 95 -
02:40 8,9 8,1 1,4 Westen 3,2 1032,4 95 -
02:45 8,9 8,1 3,2 WZW 4,8 1032,7 95 -
02:50 8,9 8,1 1,4 ZZW 4,8 1032,7 95 -
02:55 8,9 8,1 3,2 ZW 3,2 1032,7 95 -
03:00 8,9 8,1 1,4 WNW 4,8 1032,7 95 -
03:05 8,9 8,1 1,4 Westen 3,2 1032,7 95 -
03:10 8,9 8,1 3,2 ZW 6,4 1032,7 95 -
03:15 8,9 8,1 1,4 WZW 4,8 1032,4 95 -
03:20 8,9 8,1 3,2 WZW 4,8 1032,7 95 -
03:25 8,8 8,0   Kalm 4,8 1032,7 95 -
03:30 8,8 8,0 3,2 WZW 4,8 1032,7 95 -
03:35 8,8 8,0 1,4 Westen 4,8 1032,7 95 -
03:40 8,8 8,0 3,2 Westen 4,8 1032,7 95 -
03:45 8,8 8,0   Kalm 3,2 1032,7 95 -
03:50 8,8 8,0   Kalm 4,8 1032,7 95 0,30
03:55 8,8 8,0 1,4 Westen 1,6 1032,7 95 0,30
04:00 8,8 8,2   Kalm 4,8 1032,7 96 0,30
04:05 8,8 8,2 1,4 WZW 3,2 1032,7 96 0,30
04:10 8,8 8,2 3,2 Westen 3,2 1032,7 96 0,30
04:15 8,8 8,2 1,4 WZW 1,6 1032,7 96 0,30
04:20 8,8 8,2 1,4 Westen 4,8 1032,7 96 0,30
04:25 8,8 8,2   Kalm 3,2 1032,7 96 0,30
04:30 8,7 8,1 1,4 Westen 3,2 1032,7 96 0,30
04:35 8,7 8,1 1,4 WZW 4,8 1033,1 96 0,30
04:40 8,7 8,1 3,2 ZW 3,2 1032,7 96 0,30
04:45 8,7 8,1 1,4 NW 4,8 1033,1 96 0,30
04:50 8,7 8,1   Kalm 1,6 1033,1 96 -
04:55 8,7 8,1   Kalm 3,2 1033,1 96 -
05:00 8,7 8,1   Kalm 4,8 1033,1 96 -
05:05 8,6 8,0 1,4 Westen 3,2 1033,1 96 -
05:10 8,6 8,0   Kalm 4,8 1033,1 96 -
05:15 8,6 8,0   Kalm 4,8 1033,1 96 -
05:20 8,6 8,0   Kalm 1,6 1033,4 96 -
05:25 8,6 8,0 1,4 ZW 3,2 1033,1 96 -
05:30 8,6 8,0   Kalm   1033,1 96 -
05:35 8,6 8,0   Kalm   1033,4 96 -
05:40 8,6 8,0   Kalm 1,6 1033,4 96 -
05:45 8,6 8,0   Kalm   1033,4 96 -
05:50 8,6 8,0   Kalm   1033,4 96 -
05:55 8,6 8,0 1,4 WZW 3,2 1033,4 96 -
06:00 8,6 8,0   Kalm 1,6 1033,4 96 -
06:05 8,6 8,0 1,4 WZW 1,6 1033,4 96 -
06:10 8,6 8,0   Kalm 1,6 1033,7 96 -
06:15 8,6 8,0   Kalm   1033,7 96 -
06:20 8,6 8,0   Kalm   1033,7 96 -
06:25 8,6 8,0   Kalm   1033,7 96 -
06:30 8,6 8,0   Kalm   1034,1 96 -
06:35 8,6 8,0   Kalm   1033,7 96 -
06:40 8,6 8,0   Kalm   1034,1 96 -
06:45 8,6 8,0   Kalm   1034,1 96 -
06:50 8,6 8,0   Kalm   1034,1 96 -
06:55 8,6 8,0   Kalm   1034,1 96 -
07:00 8,6 8,0   Kalm   1034,1 96 -
07:05 8,5 7,9   Kalm   1034,1 96 -
07:10 8,5 7,9   Kalm   1034,4 96 -
07:15 8,5 7,9   Kalm   1034,4 96 -
07:20 8,5 7,9   Kalm 3,2 1034,4 96 -
07:25 8,5 7,9 3,2 Westen 4,8 1034,4 96 -
07:30 8,5 7,9   Kalm 1,6 1034,4 96 -
07:35 8,6 8,0 1,4 ZZW 1,6 1034,4 96 -
07:40 8,6 8,0 3,2 WNW 6,4 1034,4 96 -
07:45 8,5 7,9 1,4 WNW 4,8 1034,4 96 -
07:50 8,5 7,9   Kalm 3,2 1034,4 96 -
07:55 8,5 7,9   Kalm 1,6 1034,4 96 -
08:00 8,5 7,9   Kalm   1034,4 96 -
08:05 8,5 7,9   Kalm   1034,8 96 -
08:10 8,4 7,8   Kalm 3,2 1034,8 96 -
08:15 8,4 7,8 3,2 NW 6,4 1035,1 96 0,30
08:20 8,4 7,8 3,2 WNW 4,8 1034,8 96 0,30
08:25 8,4 7,8 1,4 WNW 3,2 1034,8 96 0,30
08:30 8,4 7,8 1,4 NW 4,8 1035,1 96 0,30
08:35 8,4 7,8 1,4 Westen 3,2 1035,1 96 0,30
08:40 8,4 7,8 1,4 WZW 1,6 1035,4 96 0,30
08:45 8,4 7,8 1,4 NNW 3,2 1035,4 96 0,30
Dagelijkse Samenvatting Vrijdag 22 februari 2019
Tijd Temp. ( °C ) Dew pt. ( °C ) Wind ( km/h ) van Windvlaag ( km/h ) Luchtdruk ( hPa ) Humid.( % ) Rainrate ( cm )
Hoog9,6 8,4 6,4 WZW ( 43/123 ) 9,7 1035,4 96 0,30
Gemiddeld8,8 8,1 1,2 Kalm #51/105 3,2 1033,1 95 0,60
Laag8,4 7,8 -   0,0 1031,7 91 -
Dagelijkse Tabular details for Vrijdag 22 februari 2019
Tijd Temp. ( °C ) Dew pt. ( °C ) Wind ( km/h ) van Windvlaag ( km/h ) Luchtdruk ( hPa ) Humid.( % ) Rainrate ( cm )
00:04 9,6 8,2 3,2 WZW 3,2 1031,7 91 -
00:09 9,4 8,0   Kalm 3,2 1031,7 91 -
00:14 9,4 8,2   Kalm   1031,7 92 -
00:20 9,4 8,2 3,2 Westen 3,2 1031,7 92 -
00:25 9,3 8,1   Kalm 1,6 1031,7 92 -
00:30 9,3 8,2 1,4 Westen 1,6 1031,7 93 -
00:35 9,3 8,2 1,4 Westen 3,2 1032,1 93 -
00:40 9,3 8,2 1,4 WZW 3,2 1032,1 93 -
00:45 9,3 8,2 3,2 WZW 6,4 1032,1 93 -
00:50 9,3 8,2   Kalm 4,8 1032,1 93 0,30
00:55 9,3 8,4   Kalm 3,2 1032,1 94 0,30
01:00 9,3 8,4   Kalm 6,4 1032,1 94 0,30
01:05 9,3 8,4   Kalm 4,8 1032,1 94 0,30
01:10 9,2 8,3   Kalm 3,2 1032,1 94 0,30
01:15 9,2 8,3 4,7 Westen 4,8 1032,1 94 0,30
01:20 9,2 8,3 4,7 Westen 6,4 1032,1 94 0,30
01:25 9,2 8,3   Kalm 6,4 1032,1 94 0,30
01:30 9,2 8,3 1,4 WZW 6,4 1032,1 94 0,30
01:35 9,1 8,2 6,4 WZW 9,7 1032,1 94 0,30
01:40 9,1 8,2 4,7 WNW 8,0 1032,1 94 0,30
01:45 9,1 8,3 1,4 ZW 6,4 1032,1 95 0,30
01:50 9,1 8,3 1,4 Westen 8,0 1032,1 95 -
01:55 9,1 8,3 1,4 Westen 4,8 1032,1 95 -
02:00 9,0 8,2 4,7 WZW 4,8 1032,4 95 -
02:05 9,0 8,2   Kalm 4,8 1032,4 95 -
02:10 9,0 8,2 1,4 ZW 4,8 1032,4 95 -
02:15 9,0 8,2   Kalm 3,2 1032,4 95 -
02:20 8,9 8,1 1,4 WNW 4,8 1032,4 95 -
02:25 9,0 8,2   Kalm 3,2 1032,4 95 -
02:30 8,9 8,1   Kalm 3,2 1032,4 95 -
02:35 8,9 8,1 3,2 WZW 3,2 1032,7 95 -
02:40 8,9 8,1 1,4 Westen 3,2 1032,4 95 -
02:45 8,9 8,1 3,2 WZW 4,8 1032,7 95 -
02:50 8,9 8,1 1,4 ZZW 4,8 1032,7 95 -
02:55 8,9 8,1 3,2 ZW 3,2 1032,7 95 -
03:00 8,9 8,1 1,4 WNW 4,8 1032,7 95 -
03:05 8,9 8,1 1,4 Westen 3,2 1032,7 95 -
03:10 8,9 8,1 3,2 ZW 6,4 1032,7 95 -
03:15 8,9 8,1 1,4 WZW 4,8 1032,4 95 -
03:20 8,9 8,1 3,2 WZW 4,8 1032,7 95 -
03:25 8,8 8,0   Kalm 4,8 1032,7 95 -
03:30 8,8 8,0 3,2 WZW 4,8 1032,7 95 -
03:35 8,8 8,0 1,4 Westen 4,8 1032,7 95 -
03:40 8,8 8,0 3,2 Westen 4,8 1032,7 95 -
03:45 8,8 8,0   Kalm 3,2 1032,7 95 -
03:50 8,8 8,0   Kalm 4,8 1032,7 95 0,30
03:55 8,8 8,0 1,4 Westen 1,6 1032,7 95 0,30
04:00 8,8 8,2   Kalm 4,8 1032,7 96 0,30
04:05 8,8 8,2 1,4 WZW 3,2 1032,7 96 0,30
04:10 8,8 8,2 3,2 Westen 3,2 1032,7 96 0,30
04:15 8,8 8,2 1,4 WZW 1,6 1032,7 96 0,30
04:20 8,8 8,2 1,4 Westen 4,8 1032,7 96 0,30
04:25 8,8 8,2   Kalm 3,2 1032,7 96 0,30
04:30 8,7 8,1 1,4 Westen 3,2 1032,7 96 0,30
04:35 8,7 8,1 1,4 WZW 4,8 1033,1 96 0,30
04:40 8,7 8,1 3,2 ZW 3,2 1032,7 96 0,30
04:45 8,7 8,1 1,4 NW 4,8 1033,1 96 0,30
04:50 8,7 8,1   Kalm 1,6 1033,1 96 -
04:55 8,7 8,1   Kalm 3,2 1033,1 96 -
05:00 8,7 8,1   Kalm 4,8 1033,1 96 -
05:05 8,6 8,0 1,4 Westen 3,2 1033,1 96 -
05:10 8,6 8,0   Kalm 4,8 1033,1 96 -
05:15 8,6 8,0   Kalm 4,8 1033,1 96 -
05:20 8,6 8,0   Kalm 1,6 1033,4 96 -
05:25 8,6 8,0 1,4 ZW 3,2 1033,1 96 -
05:30 8,6 8,0   Kalm   1033,1 96 -
05:35 8,6 8,0   Kalm   1033,4 96 -
05:40 8,6 8,0   Kalm 1,6 1033,4 96 -
05:45 8,6 8,0   Kalm   1033,4 96 -
05:50 8,6 8,0   Kalm   1033,4 96 -
05:55 8,6 8,0 1,4 WZW 3,2 1033,4 96 -
06:00 8,6 8,0   Kalm 1,6 1033,4 96 -
06:05 8,6 8,0 1,4 WZW 1,6 1033,4 96 -
06:10 8,6 8,0   Kalm 1,6 1033,7 96 -
06:15 8,6 8,0   Kalm   1033,7 96 -
06:20 8,6 8,0   Kalm   1033,7 96 -
06:25 8,6 8,0   Kalm   1033,7 96 -
06:30 8,6 8,0   Kalm   1034,1 96 -
06:35 8,6 8,0   Kalm   1033,7 96 -
06:40 8,6 8,0   Kalm   1034,1 96 -
06:45 8,6 8,0   Kalm   1034,1 96 -
06:50 8,6 8,0   Kalm   1034,1 96 -
06:55 8,6 8,0   Kalm   1034,1 96 -
07:00 8,6 8,0   Kalm   1034,1 96 -
07:05 8,5 7,9   Kalm   1034,1 96 -
07:10 8,5 7,9   Kalm   1034,4 96 -
07:15 8,5 7,9   Kalm   1034,4 96 -
07:20 8,5 7,9   Kalm 3,2 1034,4 96 -
07:25 8,5 7,9 3,2 Westen 4,8 1034,4 96 -
07:30 8,5 7,9   Kalm 1,6 1034,4 96 -
07:35 8,6 8,0 1,4 ZZW 1,6 1034,4 96 -
07:40 8,6 8,0 3,2 WNW 6,4 1034,4 96 -
07:45 8,5 7,9 1,4 WNW 4,8 1034,4 96 -
07:50 8,5 7,9   Kalm 3,2 1034,4 96 -
07:55 8,5 7,9   Kalm 1,6 1034,4 96 -
08:00 8,5 7,9   Kalm   1034,4 96 -
08:05 8,5 7,9   Kalm   1034,8 96 -
08:10 8,4 7,8   Kalm 3,2 1034,8 96 -
08:15 8,4 7,8 3,2 NW 6,4 1035,1 96 0,30
08:20 8,4 7,8 3,2 WNW 4,8 1034,8 96 0,30
08:25 8,4 7,8 1,4 WNW 3,2 1034,8 96 0,30
08:30 8,4 7,8 1,4 NW 4,8 1035,1 96 0,30
08:35 8,4 7,8 1,4 Westen 3,2 1035,1 96 0,30
08:40 8,4 7,8 1,4 WZW 1,6 1035,4 96 0,30
08:45 8,4 7,8 1,4 NNW 3,2 1035,4 96 0,30

Download your copy of this data-set  here

Our weather-data as stored at Weather Underground. Script ontwikkeld door Jim McMurry. Aangepast voor de template door Leuven-Template.eu

U vindt ons ook hier:

UK Metoffice

Weather Underground

AWEKAS

Apparatuur in gebruik:

Weerstation
Davis Vantage Vue

Webleverancier
One.com

Davis Vantage Vue

One.com